Time;durP1;ratioP1;P1;durP2;ratioP2;P2;SDS_P1;SDS_P2;PMS_P1;PMS_P2;Temp;Humidity;BMP_temperature;BMP_pressure;BME280_temperature;BME280_humidity;BME280_pressure;Samples;Min_cycle;Max_cycle;Signal;HPM_P1;HPM_P2
2023/11/19 00:02:21;;;;;;;1.75;1.58;;;;;;;6.59;57.24;99388.94;5049775;28;20052;-40
2023/11/19 00:04:47;;;;;;;1.83;1.50;;;;;;;6.45;57.54;99400.34;5049931;28;20088;-39
2023/11/19 00:07:13;;;;;;;2.65;1.80;;;;;;;6.45;57.57;99405.63;5050150;28;20096;-37
2023/11/19 00:09:39;;;;;;;2.60;1.83;;;;;;;6.52;57.88;99408.38;5050450;28;20105;-40
2023/11/19 00:12:06;;;;;;;1.73;1.50;;;;;;;6.55;58.13;99402.69;5050371;28;20408;-41
2023/11/19 00:14:31;;;;;;;1.95;1.50;;;;;;;6.44;57.59;99398.72;5049874;28;20029;-37
2023/11/19 00:16:56;;;;;;;2.03;1.63;;;;;;;6.51;57.54;99407.56;5050738;28;20154;-39
2023/11/19 00:19:22;;;;;;;2.17;1.60;;;;;;;6.77;57.30;99406.22;5050703;28;20038;-39
2023/11/19 00:21:47;;;;;;;2.10;1.40;;;;;;;6.35;58.39;99392.72;5050856;28;20036;-39
2023/11/19 00:24:16;;;;;;;1.90;1.60;;;;;;;6.67;57.78;99400.41;5050790;28;20029;-38
2023/11/19 00:26:41;;;;;;;1.60;1.50;;;;;;;6.44;58.78;99398.72;5050338;28;20028;-39
2023/11/19 00:29:07;;;;;;;1.90;1.50;;;;;;;6.37;58.70;99401.28;5050764;28;20021;-40
2023/11/19 00:31:32;;;;;;;2.17;1.98;;;;;;;6.40;58.63;99413.31;5050907;28;20021;-39
2023/11/19 00:33:58;;;;;;;2.17;1.60;;;;;;;6.36;59.04;99420.81;5050725;28;20056;-40
2023/11/19 00:36:23;;;;;;;2.10;1.70;;;;;;;6.36;58.99;99422.59;5050308;28;20052;-39
2023/11/19 00:38:49;;;;;;;2.80;1.60;;;;;;;6.33;58.69;99425.63;5053797;28;20035;-37
2023/11/19 00:41:16;;;;;;;2.17;1.63;;;;;;;6.16;59.38;99420.53;5054439;28;20067;-39
2023/11/19 00:43:42;;;;;;;2.70;1.80;;;;;;;6.32;58.88;99418.69;5054299;28;20025;-39
2023/11/19 00:46:07;;;;;;;1.30;1.20;;;;;;;6.38;58.37;99421.44;5053863;28;20035;-37
2023/11/19 00:48:33;;;;;;;1.63;1.40;;;;;;;6.40;58.26;99432.63;5054184;28;20051;-36
2023/11/19 00:50:58;;;;;;;1.73;1.30;;;;;;;6.38;58.79;99436.47;5054530;28;20392;-39
2023/11/19 00:53:23;;;;;;;2.03;1.60;;;;;;;6.45;58.43;99440.00;5054454;28;20358;-40
2023/11/19 00:55:49;;;;;;;2.22;1.60;;;;;;;6.63;58.07;99432.50;5054229;28;20078;-39
2023/11/19 00:58:14;;;;;;;2.08;1.60;;;;;;;6.36;58.87;99435.81;5053768;28;20025;-39
2023/11/19 01:00:40;;;;;;;1.95;1.42;;;;;;;6.32;58.81;99445.13;5048012;28;20045;-38
2023/11/19 01:03:07;;;;;;;1.60;1.48;;;;;;;6.39;58.37;99438.09;5034166;28;20040;-38
2023/11/19 01:05:33;;;;;;;1.38;1.23;;;;;;;6.38;59.08;99449.69;5034012;28;20029;-39
2023/11/19 01:07:58;;;;;;;1.65;1.30;;;;;;;6.41;58.68;99444.84;5033692;28;20022;-36
2023/11/19 01:10:24;;;;;;;1.52;1.42;;;;;;;6.42;59.34;99433.28;5033863;28;20029;-38
2023/11/19 01:12:49;;;;;;;2.72;1.40;;;;;;;6.38;58.84;99434.66;5033932;28;20036;-39
2023/11/19 01:15:15;;;;;;;1.77;1.50;;;;;;;6.65;58.70;99445.56;5033838;28;20159;-39
2023/11/19 01:17:40;;;;;;;2.25;1.50;;;;;;;6.56;58.57;99428.97;5033765;28;20056;-37
2023/11/19 01:20:06;;;;;;;2.45;1.50;;;;;;;6.26;59.74;99436.94;5033626;28;20037;-40
2023/11/19 01:22:32;;;;;;;2.17;1.83;;;;;;;6.33;59.14;99438.84;5032524;28;20454;-38
2023/11/19 01:24:58;;;;;;;2.28;1.70;;;;;;;6.19;60.32;99438.66;5033777;28;20035;-38
2023/11/19 01:27:24;;;;;;;3.03;1.92;;;;;;;6.15;60.47;99449.75;5033420;28;20117;-40
2023/11/19 01:29:50;;;;;;;1.85;1.52;;;;;;;6.21;59.87;99447.22;5033032;28;20091;-39
2023/11/19 01:32:15;;;;;;;2.25;1.60;;;;;;;6.23;59.35;99450.50;5033534;28;20449;-39
2023/11/19 01:34:41;;;;;;;3.00;1.45;;;;;;;6.18;59.73;99446.78;5033490;28;20049;-37
2023/11/19 01:37:09;;;;;;;1.73;1.33;;;;;;;6.25;59.44;99445.03;5033602;28;20037;-40
2023/11/19 01:39:34;;;;;;;1.55;1.45;;;;;;;6.29;59.58;99446.31;5033428;28;20033;-40
2023/11/19 01:41:59;;;;;;;2.10;1.50;;;;;;;6.26;59.56;99449.31;5033666;28;20523;-40
2023/11/19 01:44:25;;;;;;;2.53;1.60;;;;;;;6.22;59.73;99445.41;5033444;28;20100;-40
2023/11/19 01:46:51;;;;;;;1.60;1.50;;;;;;;6.37;59.79;99456.78;5033416;28;20465;-37
2023/11/19 01:49:18;;;;;;;1.67;1.20;;;;;;;6.26;59.86;99441.38;5033274;28;20091;-40
2023/11/19 01:51:44;;;;;;;2.00;1.60;;;;;;;6.27;59.63;99443.03;5033015;28;20017;-39
2023/11/19 01:54:10;;;;;;;1.70;1.48;;;;;;;6.42;59.26;99443.03;5033583;28;20108;-40
2023/11/19 01:56:40;;;;;;;2.15;1.50;;;;;;;6.37;59.52;99434.81;5033286;28;20061;-38
2023/11/19 01:59:07;;;;;;;1.75;1.40;;;;;;;6.24;60.62;99448.69;5035160;28;20025;-40
2023/11/19 02:01:34;;;;;;;2.03;1.70;;;;;;;6.21;60.15;99464.91;5041157;28;20167;-40
2023/11/19 02:04:01;;;;;;;1.90;1.60;;;;;;;6.30;59.98;99471.72;5033047;28;20034;-38
2023/11/19 02:06:28;;;;;;;2.28;1.80;;;;;;;6.16;60.63;99462.00;5033175;28;20052;-39
2023/11/19 02:08:53;;;;;;;2.20;1.75;;;;;;;6.46;59.23;99483.97;5032998;28;20022;-39
2023/11/19 02:11:19;;;;;;;2.17;1.70;;;;;;;6.36;59.74;99460.44;5032796;28;20031;-39
2023/11/19 02:13:44;;;;;;;1.88;1.38;;;;;;;6.13;60.40;99451.78;5032128;28;20041;-40
2023/11/19 02:16:10;;;;;;;3.05;1.88;;;;;;;6.28;59.46;99446.50;5032163;28;20102;-39
2023/11/19 02:18:36;;;;;;;2.53;1.80;;;;;;;6.11;60.33;99454.63;5032640;28;20701;-40
2023/11/19 02:21:01;;;;;;;2.30;1.60;;;;;;;6.21;59.56;99452.50;5032871;28;20098;-38
2023/11/19 02:23:28;;;;;;;2.63;1.73;;;;;;;6.30;59.89;99449.78;5032167;28;20381;-39
2023/11/19 02:26:19;;;;;;;2.05;1.58;;;;;;;6.41;59.42;99459.88;5032437;28;20029;-39
2023/11/19 02:28:45;;;;;;;1.90;1.70;;;;;;;6.49;59.00;99465.06;5044742;28;20082;-39
2023/11/19 02:31:11;;;;;;;1.50;1.40;;;;;;;6.37;59.02;99474.47;5052013;28;20431;-40
2023/11/19 02:33:39;;;;;;;1.90;1.45;;;;;;;6.13;60.09;99479.03;5051589;28;20090;-37
2023/11/19 02:36:06;;;;;;;2.30;1.92;;;;;;;6.19;60.00;99490.69;5052269;28;20507;-40
2023/11/19 02:38:33;;;;;;;2.30;1.70;;;;;;;6.30;59.18;99492.06;5052148;28;20033;-40
2023/11/19 02:40:58;;;;;;;1.67;1.50;;;;;;;6.15;59.98;99495.53;5051903;28;20073;-39
2023/11/19 02:43:23;;;;;;;2.38;1.65;;;;;;;6.19;59.85;99472.19;5052290;28;20472;-40
2023/11/19 02:45:49;;;;;;;2.20;1.80;;;;;;;6.35;58.95;99463.25;5052100;28;20064;-39
2023/11/19 02:48:15;;;;;;;2.53;1.88;;;;;;;6.41;58.94;99483.66;5052130;28;20104;-40
2023/11/19 02:50:42;;;;;;;2.95;1.70;;;;;;;6.34;58.76;99477.47;5052049;28;20021;-37
2023/11/19 02:53:07;;;;;;;2.10;1.90;;;;;;;6.46;59.35;99478.66;5051793;28;20033;-36
2023/11/19 02:55:37;;;;;;;1.90;1.70;;;;;;;6.37;58.50;99479.75;5051503;28;20097;-39
2023/11/19 02:58:07;;;;;;;;;;;;;;;6.30;58.88;99468.28;5052505;28;20028;-40
2023/11/19 03:00:37;;;;;;;3.58;1.90;;;;;;;6.40;59.01;99482.03;5048141;28;19923;-40
2023/11/19 03:03:17;;;;;;;2.80;1.80;;;;;;;6.31;58.91;99473.38;5031626;28;20041;-37
2023/11/19 03:05:44;;;;;;;2.60;2.00;;;;;;;6.29;58.89;99471.94;5031557;28;20254;-38
2023/11/19 03:08:10;;;;;;;2.10;1.70;;;;;;;6.14;59.43;99475.38;5031687;28;20045;-40
2023/11/19 03:10:35;;;;;;;1.80;1.60;;;;;;;6.14;59.44;99477.19;5032005;28;20025;-40
2023/11/19 03:13:02;;;;;;;2.75;1.80;;;;;;;6.15;59.77;99469.09;5031782;28;20033;-38
2023/11/19 03:15:27;;;;;;;2.20;1.63;;;;;;;6.19;59.10;99440.50;5031502;28;20489;-40
2023/11/19 03:17:52;;;;;;;2.42;1.95;;;;;;;6.19;59.16;99459.00;5031820;28;20155;-39
2023/11/19 03:20:18;;;;;;;1.92;1.73;;;;;;;6.21;59.07;99455.16;5031767;28;20511;-39
2023/11/19 03:22:44;;;;;;;4.75;2.00;;;;;;;6.21;58.95;99449.88;5030423;28;20057;-40
2023/11/19 03:25:10;;;;;;;3.65;2.10;;;;;;;6.03;59.70;99447.56;5031293;28;20033;-40
2023/11/19 03:27:36;;;;;;;2.47;2.00;;;;;;;6.03;60.01;99463.41;5031011;28;20124;-41
2023/11/19 03:30:04;;;;;;;2.20;2.00;;;;;;;6.16;60.56;99462.00;5031323;28;20036;-40
2023/11/19 03:32:31;;;;;;;3.65;2.00;;;;;;;5.91;61.47;99464.84;5031247;28;20075;-38
2023/11/19 03:34:56;;;;;;;2.42;1.90;;;;;;;5.75;61.91;99455.25;5030159;28;20061;-37
2023/11/19 03:37:21;;;;;;;2.40;1.92;;;;;;;5.75;61.91;99459.69;5031036;28;20053;-39
2023/11/19 03:39:47;;;;;;;2.60;2.25;;;;;;;5.80;61.88;99466.09;5031524;28;20104;-39
2023/11/19 03:42:13;;;;;;;2.47;2.10;;;;;;;5.76;61.47;99458.72;5031317;28;20345;-38
2023/11/19 03:44:38;;;;;;;2.67;2.28;;;;;;;5.62;62.39;99455.88;5031388;28;20052;-39
2023/11/19 03:47:04;;;;;;;2.85;2.05;;;;;;;5.88;61.29;99460.75;5030998;28;20026;-40
2023/11/19 03:49:29;;;;;;;3.00;2.20;;;;;;;5.90;61.23;99465.81;5030854;28;20028;-39
2023/11/19 03:51:55;;;;;;;4.18;2.20;;;;;;;5.88;60.75;99466.03;5031258;28;20645;-39
2023/11/19 03:54:23;;;;;;;2.95;2.20;;;;;;;5.77;61.20;99458.53;5031225;28;20040;-37
2023/11/19 03:56:48;;;;;;;2.45;2.00;;;;;;;5.90;60.74;99470.28;5031321;28;20064;-37
2023/11/19 03:59:15;;;;;;;2.50;2.30;;;;;;;5.90;60.32;99467.66;5030817;28;20068;-37
2023/11/19 04:01:40;;;;;;;2.80;2.28;;;;;;;5.81;60.22;99482.78;5030906;28;20100;-40
2023/11/19 04:04:06;;;;;;;2.63;2.20;;;;;;;5.98;60.11;99484.28;5031245;28;20034;-39
2023/11/19 04:06:31;;;;;;;2.90;2.10;;;;;;;5.92;59.69;99478.84;5031376;28;20101;-37
2023/11/19 04:08:57;;;;;;;2.72;2.17;;;;;;;5.94;59.48;99482.13;5030880;28;20018;-40
2023/11/19 04:11:22;;;;;;;4.18;2.10;;;;;;;5.82;59.66;99490.50;5030755;28;20079;-39
2023/11/19 04:13:48;;;;;;;2.45;2.00;;;;;;;5.83;59.71;99499.25;5034341;28;20048;-38
2023/11/19 04:16:14;;;;;;;2.58;1.95;;;;;;;6.02;58.60;99490.84;5035376;28;20018;-39
2023/11/19 04:18:40;;;;;;;3.40;2.30;;;;;;;6.01;58.83;99512.97;5034957;28;20029;-39
2023/11/19 04:21:07;;;;;;;2.88;2.05;;;;;;;6.00;58.31;99500.78;5034989;28;20025;-40
2023/11/19 04:23:32;;;;;;;3.42;2.40;;;;;;;6.04;58.22;99502.06;5033511;28;20018;-39
2023/11/19 04:25:58;;;;;;;2.28;1.90;;;;;;;5.90;58.53;99489.59;5034800;28;20376;-38
2023/11/19 04:28:26;;;;;;;2.17;1.80;;;;;;;5.88;58.39;99499.53;5035023;28;20036;-40
2023/11/19 04:30:52;;;;;;;2.67;2.03;;;;;;;5.96;58.22;99488.09;5034451;28;20490;-38
2023/11/19 04:33:17;;;;;;;2.95;2.05;;;;;;;6.25;57.71;99505.81;5034570;28;20040;-39
2023/11/19 04:35:43;;;;;;;2.22;1.92;;;;;;;5.97;58.62;99495.84;5034717;28;20116;-38
2023/11/19 04:38:08;;;;;;;3.55;2.50;;;;;;;6.03;58.60;99512.78;5034551;28;20465;-39
2023/11/19 04:40:34;;;;;;;2.55;2.13;;;;;;;5.86;58.60;99505.00;5034939;28;20025;-39
2023/11/19 04:42:59;;;;;;;2.70;2.20;;;;;;;5.70;59.77;99497.22;5034168;28;20025;-39
2023/11/19 04:45:24;;;;;;;3.30;2.13;;;;;;;5.81;59.42;99511.81;5034525;28;20033;-39
2023/11/19 04:47:50;;;;;;;2.40;2.20;;;;;;;5.71;60.84;99514.69;5039216;28;20025;-39
2023/11/19 04:50:16;;;;;;;3.40;2.60;;;;;;;5.80;60.45;99504.88;5035742;28;20091;-40
2023/11/19 04:52:44;;;;;;;2.83;2.30;;;;;;;5.63;61.07;99512.13;5034021;28;20040;-39
2023/11/19 04:55:11;;;;;;;3.17;2.50;;;;;;;5.59;60.99;99518.75;5033878;28;20032;-39
2023/11/19 04:57:37;;;;;;;3.28;2.38;;;;;;;5.61;60.82;99506.19;5033955;28;20037;-39
2023/11/19 05:00:04;;;;;;;2.88;2.30;;;;;;;5.71;60.82;99519.97;5034268;28;20029;-39
2023/11/19 05:02:30;;;;;;;2.17;1.88;;;;;;;5.37;61.33;99508.03;5048809;28;20412;-39
2023/11/19 05:04:55;;;;;;;2.92;2.10;;;;;;;5.26;61.35;99498.69;5054545;28;20033;-39
2023/11/19 05:07:21;;;;;;;3.08;2.33;;;;;;;5.45;60.91;99510.59;5054816;28;20023;-40
2023/11/19 05:09:46;;;;;;;2.72;2.05;;;;;;;5.71;60.01;99506.75;5054507;28;20067;-39
2023/11/19 05:12:12;;;;;;;4.00;2.30;;;;;;;5.38;60.83;99506.19;5054230;28;20048;-39
2023/11/19 05:14:38;;;;;;;5.88;2.45;;;;;;;5.43;60.70;99512.59;5054557;28;20063;-39
2023/11/19 05:17:04;;;;;;;4.72;2.25;;;;;;;5.39;60.36;99508.66;5054360;28;20564;-39
2023/11/19 05:19:29;;;;;;;2.53;1.90;;;;;;;5.37;60.24;99500.09;5054622;28;20021;-39
2023/11/19 05:21:54;;;;;;;2.92;2.10;;;;;;;5.39;60.50;99516.59;5054318;28;20444;-39
2023/11/19 05:24:20;;;;;;;3.13;2.30;;;;;;;5.54;60.79;99507.88;5053091;28;20564;-39
2023/11/19 05:26:45;;;;;;;2.85;2.10;;;;;;;5.73;59.16;99520.63;5053528;28;20021;-39
2023/11/19 05:29:10;;;;;;;2.75;2.10;;;;;;;5.47;60.29;99532.34;5054112;28;20033;-39
2023/11/19 05:31:36;;;;;;;2.92;2.25;;;;;;;5.36;61.20;99529.31;5049130;28;20047;-39
2023/11/19 05:34:01;;;;;;;4.85;2.08;;;;;;;5.33;60.54;99535.75;5052717;28;20036;-38
2023/11/19 05:36:28;;;;;;;2.95;2.30;;;;;;;5.41;60.45;99525.16;5054061;28;20017;-40
2023/11/19 05:38:54;;;;;;;2.80;2.50;;;;;;;5.53;60.43;99541.41;5053990;28;20029;-38
2023/11/19 05:41:19;;;;;;;4.03;2.28;;;;;;;5.40;61.09;99544.59;5053572;28;20071;-40
2023/11/19 05:43:45;;;;;;;6.38;2.58;;;;;;;5.48;60.84;99549.00;5053664;28;20103;-40
2023/11/19 05:46:10;;;;;;;2.97;2.33;;;;;;;5.46;60.28;99558.91;5053492;28;20032;-40
2023/11/19 05:48:36;;;;;;;3.63;2.40;;;;;;;5.39;60.72;99558.00;5053948;28;20488;-40
2023/11/19 05:51:01;;;;;;;3.28;2.35;;;;;;;5.51;60.16;99558.41;5035234;28;20021;-40
2023/11/19 05:53:27;;;;;;;3.63;2.90;;;;;;;5.47;60.32;99556.13;5033921;28;20511;-39
2023/11/19 05:55:55;;;;;;;3.45;2.35;;;;;;;5.52;59.82;99531.84;5033940;28;20013;-39
2023/11/19 05:58:28;;;;;;;4.00;2.60;;;;;;;5.64;59.46;99556.81;5033726;28;20092;-41
2023/11/19 06:00:57;;;;;;;2.85;2.40;;;;;;;5.75;59.45;99560.03;5043750;28;20041;-38
2023/11/19 06:03:23;;;;;;;2.72;2.33;;;;;;;6.11;58.74;99552.38;5037281;28;20028;-40
2023/11/19 06:05:49;;;;;;;3.00;1.98;;;;;;;6.20;57.36;99535.41;5049154;28;20017;-42
2023/11/19 06:08:15;;;;;;;3.22;2.42;;;;;;;6.55;56.45;99543.66;5033574;28;20033;-39
2023/11/19 06:10:41;;;;;;;3.03;2.03;;;;;;;6.78;55.69;99540.94;5033415;28;20013;-41
2023/11/19 06:13:06;;;;;;;2.80;2.08;;;;;;;6.82;55.69;99558.06;5033417;28;20057;-38
2023/11/19 06:15:33;;;;;;;4.60;2.30;;;;;;;7.08;55.00;99562.03;5033280;28;20095;-40
2023/11/19 06:18:01;;;;;;;2.35;1.83;;;;;;;6.64;56.03;99550.50;5033457;28;20095;-41
2023/11/19 06:20:28;;;;;;;3.35;2.50;;;;;;;6.92;55.30;99568.34;5033563;28;20021;-40
2023/11/19 06:22:54;;;;;;;3.13;2.20;;;;;;;7.18;54.50;99572.34;5033366;28;20025;-39
2023/11/19 06:25:19;;;;;;;3.80;2.85;;;;;;;7.21;54.28;99582.56;5033161;28;20037;-41
2023/11/19 06:27:45;;;;;;;4.32;2.33;;;;;;;7.41;53.83;99588.91;5032864;28;20027;-41
2023/11/19 06:30:11;;;;;;;3.47;2.78;;;;;;;7.88;52.93;99578.81;5032786;28;20029;-40
2023/11/19 06:32:37;;;;;;;3.72;2.58;;;;;;;8.47;51.50;99580.28;5032964;28;20037;-40
2023/11/19 06:35:04;;;;;;;2.97;2.30;;;;;;;9.06;49.96;99592.28;5032307;28;20029;-39
2023/11/19 06:37:30;;;;;;;3.17;2.40;;;;;;;9.00;49.80;99598.38;5033259;28;20021;-39
2023/11/19 06:39:55;;;;;;;3.75;2.85;;;;;;;9.22;49.06;99601.75;5052913;28;20031;-39
2023/11/19 06:42:21;;;;;;;2.63;2.10;;;;;;;8.93;49.08;99601.00;5072676;28;20098;-40
2023/11/19 06:44:46;;;;;;;2.50;2.17;;;;;;;8.68;49.53;99615.75;5072622;28;20111;-40
2023/11/19 06:47:12;;;;;;;2.90;2.20;;;;;;;9.09;48.70;99615.78;5072773;28;20059;-40
2023/11/19 06:49:37;;;;;;;3.83;2.20;;;;;;;8.98;49.34;99608.38;5072454;28;20150;-39
2023/11/19 06:52:04;;;;;;;2.75;2.22;;;;;;;9.09;48.47;99607.81;5063874;28;20017;-39
2023/11/19 06:54:30;;;;;;;2.88;2.13;;;;;;;8.90;49.57;99604.03;5051539;28;20033;-39
2023/11/19 06:56:57;;;;;;;2.67;2.05;;;;;;;8.80;49.33;99592.97;5052401;28;20104;-37
2023/11/19 06:59:22;;;;;;;3.92;2.20;;;;;;;9.19;48.72;99595.00;5034136;28;20067;-41
2023/11/19 07:01:48;;;;;;;2.72;2.15;;;;;;;9.41;47.84;99612.66;5032027;28;20080;-41
2023/11/19 07:04:13;;;;;;;2.42;1.90;;;;;;;9.09;48.12;99609.66;5032597;28;20037;-39
2023/11/19 07:06:40;;;;;;;3.42;2.20;;;;;;;9.18;48.85;99605.81;5032804;28;20025;-39
2023/11/19 07:09:09;;;;;;;3.13;2.25;;;;;;;9.18;48.29;99581.94;5031921;28;20032;-41
2023/11/19 07:11:39;;;;;;;2.40;2.00;;;;;;;9.08;48.06;99573.50;5030867;28;20029;-40
2023/11/19 07:14:06;;;;;;;4.35;2.00;;;;;;;8.97;48.04;99562.44;5031172;28;20298;-40
2023/11/19 07:16:32;;;;;;;3.88;2.33;;;;;;;8.90;49.25;99563.41;5031235;28;20033;-40
2023/11/19 07:18:58;;;;;;;2.78;2.20;;;;;;;9.37;47.64;99562.59;5031095;28;20084;-40
2023/11/19 07:21:24;;;;;;;2.60;2.30;;;;;;;9.83;46.85;99571.66;5030456;28;20119;-39
2023/11/19 07:23:50;;;;;;;2.65;2.15;;;;;;;9.92;46.23;99605.00;5031990;28;20031;-39
2023/11/19 07:26:15;;;;;;;2.58;2.13;;;;;;;9.90;47.09;99635.47;5032067;28;20029;-42
2023/11/19 07:28:40;;;;;;;2.40;2.20;;;;;;;10.08;45.99;99661.47;5032388;28;20096;-38
2023/11/19 07:31:09;;;;;;;3.40;2.50;;;;;;;10.40;46.04;99662.56;5031909;28;20421;-27
2023/11/19 07:33:34;;;;;;;3.60;2.30;;;;;;;10.83;44.71;99655.97;5031857;28;20033;-27
2023/11/19 07:35:59;;;;;;;2.83;2.10;;;;;;;10.48;45.04;99654.38;5032088;28;20052;-27
2023/11/19 07:38:25;;;;;;;3.42;2.22;;;;;;;10.40;45.40;99632.50;5031838;28;20092;-26
2023/11/19 07:40:50;;;;;;;4.15;2.28;;;;;;;9.88;45.74;99640.16;5031556;28;20437;-27
2023/11/19 07:43:16;;;;;;;3.17;2.13;;;;;;;9.92;45.34;99626.28;5031387;28;20031;-26
2023/11/19 07:45:43;;;;;;;3.92;1.83;;;;;;;9.82;45.25;99654.25;5031686;28;20382;-27
2023/11/19 07:48:09;;;;;;;4.03;2.10;;;;;;;10.05;44.27;99644.09;5031127;28;20024;-28
2023/11/19 07:50:34;;;;;;;4.47;2.13;;;;;;;9.89;45.26;99658.56;5031481;28;20018;-27
2023/11/19 07:53:00;;;;;;;2.97;2.15;;;;;;;10.08;45.03;99664.94;5048851;28;20488;-26
2023/11/19 07:55:27;;;;;;;6.82;2.80;;;;;;;10.09;44.89;99673.75;5051112;28;20550;-26
2023/11/19 07:57:52;;;;;;;2.47;1.90;;;;;;;10.06;45.21;99674.97;5051161;28;20395;-27
2023/11/19 08:00:19;;;;;;;2.83;1.80;;;;;;;9.96;44.72;99686.00;5050824;28;20488;-27
2023/11/19 08:02:45;;;;;;;4.13;2.00;;;;;;;10.22;44.50;99689.72;5036216;28;20107;-26
2023/11/19 08:05:11;;;;;;;2.85;2.00;;;;;;;9.97;44.06;99671.66;5031038;28;20413;-28
2023/11/19 08:07:36;;;;;;;3.10;1.90;;;;;;;10.23;44.24;99693.22;5031507;28;20128;-26
2023/11/19 08:10:02;;;;;;;2.88;2.05;;;;;;;10.47;43.93;99682.03;5031144;28;20445;-27
2023/11/19 08:12:27;;;;;;;4.75;2.33;;;;;;;10.80;43.14;99691.03;5031045;28;20037;-27
2023/11/19 08:14:53;;;;;;;2.78;2.20;;;;;;;10.46;43.14;99680.38;5030849;28;20090;-26
2023/11/19 08:17:18;;;;;;;3.15;2.10;;;;;;;10.57;42.96;99694.91;5031339;28;20083;-28
2023/11/19 08:19:43;;;;;;;3.17;2.08;;;;;;;10.30;43.48;99713.50;5031306;28;20379;-25
2023/11/19 08:22:09;;;;;;;2.20;1.77;;;;;;;10.41;43.50;99701.44;5030959;28;20160;-27
2023/11/19 08:24:35;;;;;;;2.50;2.00;;;;;;;9.86;44.05;99722.78;5031088;28;20052;-27
2023/11/19 08:27:00;;;;;;;4.55;2.00;;;;;;;10.32;44.00;99718.63;5030891;28;20038;-28
2023/11/19 08:29:27;;;;;;;2.65;2.03;;;;;;;10.21;43.88;99727.16;5031183;28;20025;-27
2023/11/19 08:31:52;;;;;;;3.08;2.30;;;;;;;10.69;43.20;99727.84;5030767;28;20025;-28
2023/11/19 08:34:18;;;;;;;4.15;2.33;;;;;;;10.91;43.40;99715.16;5030814;28;20030;-27
2023/11/19 08:36:44;;;;;;;4.32;2.05;;;;;;;11.22;42.08;99710.22;5030811;28;20063;-28
2023/11/19 08:39:09;;;;;;;4.28;2.15;;;;;;;11.00;43.11;99717.59;5031535;28;20100;-27
2023/11/19 08:41:34;;;;;;;3.40;2.50;;;;;;;11.15;42.50;99723.53;5030875;28;20042;-28
2023/11/19 08:44:00;;;;;;;3.42;2.40;;;;;;;10.62;42.88;99719.03;5030816;28;20052;-27
2023/11/19 08:46:26;;;;;;;4.65;2.20;;;;;;;10.48;43.26;99707.59;5030509;28;20425;-27
2023/11/19 08:48:51;;;;;;;3.67;2.15;;;;;;;10.41;43.59;99725.38;5030667;28;20036;-27
2023/11/19 08:51:17;;;;;;;3.22;2.00;;;;;;;10.02;43.79;99702.16;5030552;28;20382;-28
2023/11/19 08:53:42;;;;;;;3.63;1.98;;;;;;;10.22;43.53;99726.13;5030894;28;20586;-28
2023/11/19 08:56:07;;;;;;;3.00;2.05;;;;;;;10.26;43.21;99716.72;5030813;28;20041;-27
2023/11/19 08:58:33;;;;;;;3.15;2.28;;;;;;;10.46;44.59;99709.63;5031668;28;20108;-27
2023/11/19 09:00:58;;;;;;;7.15;2.40;;;;;;;10.18;44.20;99717.75;5050920;28;20127;-26
2023/11/19 09:03:26;;;;;;;3.00;2.10;;;;;;;10.11;45.25;99723.06;5033911;28;20029;-27
2023/11/19 09:05:51;;;;;;;4.97;2.15;;;;;;;10.15;45.44;99707.53;5034073;28;20057;-27
2023/11/19 09:08:17;;;;;;;2.42;1.90;;;;;;;9.94;43.88;99711.97;5033556;28;20378;-27
2023/11/19 09:10:43;;;;;;;3.17;1.95;;;;;;;9.63;44.36;99699.16;5033794;28;20095;-27
2023/11/19 09:13:08;;;;;;;3.15;2.10;;;;;;;9.51;44.43;99693.59;5033558;28;20117;-27
2023/11/19 09:15:33;;;;;;;2.50;1.90;;;;;;;9.74;44.42;99679.19;5034003;28;20045;-27
2023/11/19 09:17:59;;;;;;;2.63;2.00;;;;;;;9.86;43.88;99687.38;5033750;28;20075;-27
2023/11/19 09:20:24;;;;;;;4.45;2.50;;;;;;;9.91;44.26;99676.97;5033380;28;20098;-27
2023/11/19 09:22:51;;;;;;;4.80;2.17;;;;;;;10.05;43.31;99689.31;5033859;28;20056;-27
2023/11/19 09:25:16;;;;;;;5.05;2.15;;;;;;;10.06;43.33;99687.44;5033529;28;20109;-27
2023/11/19 09:27:43;;;;;;;4.25;1.90;;;;;;;9.98;42.91;99707.06;5031872;28;20471;-27
2023/11/19 09:30:09;;;;;;;5.05;2.05;;;;;;;9.87;43.93;99704.97;5032044;28;20025;-30
2023/11/19 09:32:34;;;;;;;2.42;2.00;;;;;;;10.23;42.88;99722.47;5032531;28;20032;-27
2023/11/19 09:35:00;;;;;;;3.10;2.40;;;;;;;10.08;42.79;99728.75;5032576;28;20029;-29
2023/11/19 09:37:26;;;;;;;2.65;2.10;;;;;;;10.08;42.79;99715.47;5032294;28;20024;-27
2023/11/19 09:39:53;;;;;;;2.97;2.10;;;;;;;10.35;42.44;99734.97;5035286;28;20048;-27
2023/11/19 09:42:19;;;;;;;2.67;1.85;;;;;;;10.10;42.80;99720.59;5050136;28;20445;-26
2023/11/19 09:44:46;;;;;;;3.55;2.03;;;;;;;9.98;42.72;99723.03;5052923;28;20028;-27
2023/11/19 09:47:12;;;;;;;3.10;1.85;;;;;;;9.91;43.41;99712.34;5052994;28;20024;-27
2023/11/19 09:49:38;;;;;;;2.60;2.10;;;;;;;9.97;43.20;99694.78;5051833;28;20024;-27
2023/11/19 09:52:04;;;;;;;5.60;2.30;;;;;;;10.06;42.57;99698.09;5051806;28;20023;-26
2023/11/19 09:54:29;;;;;;;2.95;2.22;;;;;;;9.73;43.35;99714.75;5052114;28;20029;-27
2023/11/19 09:57:03;;;;;;;2.75;2.00;;;;;;;9.75;42.87;99694.94;5052101;28;20021;-27
2023/11/19 09:59:29;;;;;;;2.58;2.10;;;;;;;9.94;43.05;99689.88;5051936;28;20021;-26
2023/11/19 10:01:56;;;;;;;2.30;1.90;;;;;;;10.00;43.27;99688.25;5051317;28;20595;-27
2023/11/19 10:04:22;;;;;;;4.63;1.92;;;;;;;9.89;42.96;99702.94;5052415;28;20052;-27
2023/11/19 10:06:50;;;;;;;3.90;2.20;;;;;;;9.84;42.96;99705.38;5051774;28;20032;-28
2023/11/19 10:09:15;;;;;;;2.83;1.67;;;;;;;9.85;48.95;99720.31;5052230;28;20031;-26
2023/11/19 10:11:40;;;;;;;2.65;1.98;;;;;;;10.01;42.97;99713.81;5051793;28;20108;-27
2023/11/19 10:14:06;;;;;;;2.58;2.00;;;;;;;10.19;43.15;99698.13;5051763;28;20029;-29
2023/11/19 10:16:34;;;;;;;3.13;2.30;;;;;;;10.72;42.59;99694.72;5051775;28;20017;-27
2023/11/19 10:19:00;;;;;;;2.67;2.08;;;;;;;10.71;41.84;99688.53;5051588;28;20087;-27
2023/11/19 10:21:27;;;;;;;3.35;2.00;;;;;;;10.46;41.86;99663.59;5051620;28;20431;-28
2023/11/19 10:23:56;;;;;;;2.67;2.10;;;;;;;10.22;42.51;99676.41;5051394;28;20025;-26
2023/11/19 10:26:22;;;;;;;2.20;2.00;;;;;;;10.02;43.11;99673.75;5051768;28;20028;-27
2023/11/19 10:28:48;;;;;;;2.88;2.03;;;;;;;10.06;42.56;99676.81;5051684;28;20037;-27
2023/11/19 10:31:18;;;;;;;3.05;2.40;;;;;;;9.84;42.92;99671.63;5051232;28;20023;-27
2023/11/19 10:33:47;;;;;;;2.88;2.28;;;;;;;9.82;43.54;99671.00;5051035;28;20037;-27
2023/11/19 10:36:13;;;;;;;9.10;2.33;;;;;;;10.17;42.66;99660.28;5051430;28;20048;-28
2023/11/19 10:38:39;;;;;;;3.55;2.15;;;;;;;10.61;42.70;99666.06;5051246;28;20059;-27
2023/11/19 10:41:05;;;;;;;2.55;1.90;;;;;;;10.01;42.71;99658.78;5051620;28;20380;-28
2023/11/19 10:43:31;;;;;;;3.60;2.50;;;;;;;10.18;43.01;99648.59;5051230;28;20025;-29
2023/11/19 10:46:14;;;;;;;2.83;2.17;;;;;;;10.27;41.93;99643.91;5051098;28;20487;-27
2023/11/19 10:48:40;;;;;;;3.08;2.30;;;;;;;10.46;42.26;99643.13;5051283;28;20021;-29
2023/11/19 10:51:10;;;;;;;3.03;2.50;;;;;;;10.41;43.16;99653.53;5051068;28;20017;-28
2023/11/19 10:53:40;;;;;;;3.00;2.28;;;;;;;10.45;42.55;99661.94;5051435;28;20026;-30
2023/11/19 10:56:10;;;;;;;6.55;2.20;;;;;;;10.34;42.40;99645.59;5050675;28;20025;-28
2023/11/19 10:58:39;;;;;;;2.83;2.25;;;;;;;10.41;41.99;99642.91;5050957;28;20439;-27
2023/11/19 11:01:13;;;;;;;3.10;1.98;;;;;;;10.71;41.13;99661.13;5048639;28;20825;-28
2023/11/19 11:03:40;;;;;;;2.53;2.10;;;;;;;10.62;42.57;99641.88;5046487;28;20037;-26
2023/11/19 11:06:06;;;;;;;3.25;2.40;;;;;;;10.78;41.21;99651.28;5051734;28;20021;-27
2023/11/19 11:08:31;;;;;;;3.03;2.15;;;;;;;10.64;42.28;99641.66;5052004;28;20074;-30
2023/11/19 11:10:57;;;;;;;3.45;2.50;;;;;;;10.47;41.67;99634.13;5051743;28;20095;-30
2023/11/19 11:13:24;;;;;;;2.75;2.22;;;;;;;10.33;42.13;99656.41;5038459;28;20124;-29
2023/11/19 11:15:51;;;;;;;3.15;2.40;;;;;;;10.25;42.77;99657.41;5031750;28;20037;-29
2023/11/19 11:18:18;;;;;;;3.00;2.20;;;;;;;10.35;41.75;99649.06;5044149;28;20029;-30
2023/11/19 11:20:47;;;;;;;2.90;2.03;;;;;;;10.07;42.58;99638.56;5050695;28;20021;-29
2023/11/19 11:23:27;;;;;;;3.13;2.25;;;;;;;10.47;41.91;99660.72;5050563;28;20021;-27
2023/11/19 11:26:05;;;;;;;2.53;1.98;;;;;;;10.63;43.75;99632.06;5050333;28;20055;-27
2023/11/19 11:28:30;;;;;;;3.00;2.22;;;;;;;10.72;41.29;99628.97;5050184;28;20028;-28
2023/11/19 11:31:04;;;;;;;3.55;2.28;;;;;;;10.41;41.86;99618.16;5050258;28;20021;-27
2023/11/19 11:33:50;;;;;;;3.17;2.10;;;;;;;10.75;42.92;99623.22;5049771;28;20107;-28
2023/11/19 11:36:22;;;;;;;2.47;2.10;;;;;;;10.96;42.13;99605.38;5050229;28;20033;-27